createdAt,value
2023-01-11T00:01:04.978Z,43.94
2023-01-11T00:03:33.187Z,44.67
2023-01-11T00:06:00.989Z,45.41
2023-01-11T00:08:28.811Z,45.28
2023-01-11T00:10:56.293Z,45.37
2023-01-11T00:13:23.989Z,46.03
2023-01-11T00:15:51.662Z,45.52
2023-01-11T00:18:19.247Z,45.04
2023-01-11T00:20:46.909Z,45.45
2023-01-11T00:23:14.431Z,45.12
2023-01-11T00:25:41.913Z,45.25
2023-01-11T00:28:09.686Z,44.89
2023-01-11T00:30:37.480Z,44.85
2023-01-11T00:33:04.988Z,44.81
2023-01-11T00:35:33.011Z,44.82
2023-01-11T00:38:03.664Z,45.17
2023-01-11T00:40:31.366Z,45.39
2023-01-11T00:43:17.252Z,45.22
2023-01-11T00:46:19.922Z,44.77
2023-01-11T00:48:47.378Z,44.55
2023-01-11T00:51:15.365Z,45.21
2023-01-11T00:53:43.530Z,45.35
2023-01-11T00:56:10.995Z,44.80
2023-01-11T00:58:41.832Z,45.12
2023-01-11T01:01:12.185Z,44.74
2023-01-11T01:03:39.794Z,44.14
2023-01-11T01:06:07.288Z,44.16
2023-01-11T01:08:35.679Z,44.52
2023-01-11T01:11:03.274Z,43.92
2023-01-11T01:13:51.847Z,44.10
2023-01-11T01:16:20.207Z,44.24
2023-01-11T01:18:47.965Z,43.87
2023-01-11T01:21:15.763Z,44.40
2023-01-11T01:23:43.571Z,44.57
2023-01-11T01:26:11.047Z,44.28
2023-01-11T01:28:38.567Z,44.28
2023-01-11T01:31:06.093Z,44.45
2023-01-11T01:33:39.248Z,44.52
2023-01-11T01:36:08.468Z,44.17
2023-01-11T01:38:36.064Z,43.70
2023-01-11T01:41:04.651Z,43.18
2023-01-11T01:43:53.937Z,43.66
2023-01-11T01:46:26.491Z,44.14
2023-01-11T01:48:59.418Z,43.84
2023-01-11T01:51:50.034Z,44.24
2023-01-11T01:54:25.551Z,44.22
2023-01-11T01:56:59.580Z,44.27
2023-01-11T01:59:30.406Z,43.91
2023-01-11T02:01:58.268Z,44.43
2023-01-11T02:04:32.326Z,43.84
2023-01-11T02:07:03.900Z,43.63
2023-01-11T02:09:40.864Z,44.17
2023-01-11T02:12:09.230Z,44.19
2023-01-11T02:14:39.520Z,44.27
2023-01-11T02:17:26.927Z,44.38
2023-01-11T02:20:06.655Z,43.78
2023-01-11T02:22:39.792Z,44.23
2023-01-11T02:25:07.361Z,44.51
2023-01-11T02:28:34.539Z,43.60
2023-01-11T02:31:41.446Z,44.06
2023-01-11T02:34:45.483Z,43.59
2023-01-11T02:37:28.513Z,44.29
2023-01-11T02:39:59.136Z,43.70
2023-01-11T02:42:57.854Z,44.24
2023-01-11T02:45:43.418Z,44.06
2023-01-11T02:48:31.579Z,43.64
2023-01-11T02:51:07.805Z,44.10
2023-01-11T02:53:49.771Z,44.05
2023-01-11T02:56:25.527Z,43.97
2023-01-11T02:58:55.936Z,44.30
2023-01-11T03:01:25.602Z,44.40
2023-01-11T03:03:53.940Z,44.20
2023-01-11T03:06:26.381Z,44.16
2023-01-11T03:09:30.403Z,45.12
2023-01-11T03:12:52.296Z,44.43
2023-01-11T03:15:31.839Z,44.79
2023-01-11T03:18:11.584Z,44.31
2023-01-11T03:20:44.648Z,44.19
2023-01-11T03:23:56.632Z,44.29
2023-01-11T03:26:33.347Z,44.66
2023-01-11T03:29:23.543Z,44.61
2023-01-11T03:32:04.199Z,44.63
2023-01-11T03:34:34.655Z,44.49
2023-01-11T03:37:09.936Z,44.47
2023-01-11T03:39:46.380Z,45.24
2023-01-11T03:42:22.959Z,44.92
2023-01-11T03:44:53.516Z,44.89
2023-01-11T03:47:26.037Z,44.79
2023-01-11T03:50:02.311Z,44.92
2023-01-11T03:52:38.684Z,45.11
2023-01-11T03:55:10.835Z,44.77
2023-01-11T03:57:44.034Z,45.15
2023-01-11T04:00:12.019Z,44.69
2023-01-11T04:02:41.645Z,44.48
2023-01-11T04:05:10.637Z,44.54
2023-01-11T04:07:38.423Z,44.96
2023-01-11T04:10:06.827Z,44.72
2023-01-11T04:12:34.362Z,44.55
2023-01-11T04:15:05.819Z,45.06
2023-01-11T04:17:33.453Z,45.13
2023-01-11T04:20:01.460Z,44.86
2023-01-11T04:22:34.118Z,44.85
2023-01-11T04:25:02.596Z,45.00
2023-01-11T04:27:30.294Z,44.50
2023-01-11T04:29:57.975Z,45.08
2023-01-11T04:32:25.436Z,45.26
2023-01-11T04:34:52.974Z,44.74
2023-01-11T04:37:20.499Z,45.55
2023-01-11T04:39:48.030Z,45.58
2023-01-11T04:42:22.474Z,44.92
2023-01-11T04:44:51.128Z,45.13
2023-01-11T04:47:21.235Z,44.32
2023-01-11T04:49:48.985Z,44.71
2023-01-11T04:52:18.475Z,45.00
2023-01-11T04:54:47.345Z,44.83
2023-01-11T04:57:17.095Z,44.84
2023-01-11T04:59:48.970Z,44.66
2023-01-11T05:02:17.124Z,44.60
2023-01-11T05:04:44.958Z,45.18
2023-01-11T05:07:12.948Z,45.27
2023-01-11T05:09:41.934Z,45.27
2023-01-11T05:12:09.419Z,45.41
2023-01-11T05:14:38.002Z,45.57
2023-01-11T05:17:05.738Z,45.42
2023-01-11T05:19:33.222Z,45.30
2023-01-11T05:22:00.828Z,44.78
2023-01-11T05:24:28.332Z,45.03
2023-01-11T05:26:56.133Z,45.32
2023-01-11T05:29:24.071Z,45.98
2023-01-11T05:31:51.551Z,46.01
2023-01-11T05:34:19.296Z,46.00
2023-01-11T05:36:46.973Z,45.69
2023-01-11T05:39:15.190Z,45.73
2023-01-11T05:41:42.715Z,45.66
2023-01-11T05:44:32.287Z,45.73
2023-01-11T05:47:00.892Z,45.67
2023-01-11T05:49:28.445Z,45.90
2023-01-11T05:51:56.087Z,46.31
2023-01-11T05:54:26.570Z,47.06
2023-01-11T05:56:57.504Z,47.15
2023-01-11T05:59:27.012Z,47.21
2023-01-11T06:01:54.630Z,46.88
2023-01-11T06:04:25.460Z,47.13
2023-01-11T06:06:53.394Z,46.75
2023-01-11T06:09:20.908Z,46.83
2023-01-11T06:11:50.679Z,47.01
2023-01-11T06:14:18.105Z,47.00
2023-01-11T06:16:45.622Z,47.16
2023-01-11T06:19:17.515Z,46.56
2023-01-11T06:21:45.038Z,46.45
2023-01-11T06:24:12.546Z,46.32
2023-01-11T06:26:42.186Z,46.39
2023-01-11T06:29:11.717Z,46.16
2023-01-11T06:31:41.764Z,46.92
2023-01-11T06:34:11.723Z,46.70
2023-01-11T06:36:39.846Z,46.50
2023-01-11T06:39:07.381Z,47.00
2023-01-11T06:41:35.224Z,47.09
2023-01-11T06:44:02.961Z,47.06
2023-01-11T06:46:30.561Z,47.29
2023-01-11T06:48:58.275Z,48.43
2023-01-11T06:51:28.180Z,46.88
2023-01-11T06:53:56.029Z,47.30
2023-01-11T06:56:23.947Z,47.14
2023-01-11T06:58:52.683Z,46.35
2023-01-11T07:01:21.296Z,46.53
2023-01-11T07:03:48.927Z,46.73
2023-01-11T07:06:19.562Z,46.81
2023-01-11T07:08:50.336Z,47.48
2023-01-11T07:11:18.117Z,47.06
2023-01-11T07:13:45.894Z,46.89
2023-01-11T07:16:13.349Z,47.20
2023-01-11T07:18:40.903Z,47.10
2023-01-11T07:21:08.517Z,47.69
2023-01-11T07:23:39.300Z,47.53
2023-01-11T07:26:06.881Z,47.18
2023-01-11T07:28:37.170Z,46.85
2023-01-11T07:31:05.910Z,47.17
2023-01-11T07:33:33.436Z,46.66
2023-01-11T07:36:01.258Z,47.37
2023-01-11T07:38:29.635Z,48.17
2023-01-11T07:40:57.147Z,47.89
2023-01-11T07:43:24.630Z,48.19
2023-01-11T07:45:53.978Z,48.69
2023-01-11T07:48:27.430Z,48.37
2023-01-11T07:50:55.400Z,48.46
2023-01-11T07:53:25.813Z,48.72
2023-01-11T07:55:56.149Z,48.53
2023-01-11T07:58:23.751Z,48.51
2023-01-11T08:00:53.921Z,48.45
2023-01-11T08:03:22.706Z,48.72
2023-01-11T08:05:54.343Z,48.59
2023-01-11T08:08:23.164Z,48.29
2023-01-11T08:11:09.324Z,48.31
2023-01-11T08:13:55.614Z,48.09
2023-01-11T08:16:23.589Z,48.23
2023-01-11T08:18:52.737Z,48.24
2023-01-11T08:21:21.526Z,47.90
2023-01-11T08:23:49.190Z,48.46
2023-01-11T08:26:18.215Z,48.77
2023-01-11T08:28:48.832Z,49.69
2023-01-11T08:31:17.070Z,48.71
2023-01-11T08:33:45.796Z,48.31
2023-01-11T08:36:13.583Z,48.59
2023-01-11T08:38:41.278Z,48.79
2023-01-11T08:41:10.947Z,47.76
2023-01-11T08:43:39.146Z,47.56
2023-01-11T08:46:07.463Z,47.25
2023-01-11T08:48:35.180Z,47.59
2023-01-11T08:51:02.774Z,47.37
2023-01-11T08:53:30.314Z,46.81
2023-01-11T08:55:57.839Z,47.17
2023-01-11T08:58:25.654Z,46.67
2023-01-11T09:00:53.308Z,46.75
2023-01-11T09:03:20.906Z,47.59
2023-01-11T09:05:48.494Z,47.51
2023-01-11T09:08:15.922Z,48.17
2023-01-11T09:10:43.423Z,48.34
2023-01-11T09:13:10.942Z,48.34
2023-01-11T09:15:38.626Z,47.01
2023-01-11T09:18:06.255Z,47.49
2023-01-11T09:20:34.325Z,47.35
2023-01-11T09:23:01.923Z,47.03
2023-01-11T09:25:29.497Z,46.61
2023-01-11T09:27:56.960Z,46.35
2023-01-11T09:30:25.217Z,46.38
2023-01-11T09:32:53.053Z,45.94
2023-01-11T09:35:22.705Z,46.73
2023-01-11T09:37:51.724Z,47.97
2023-01-11T09:40:31.058Z,49.28
2023-01-11T09:43:05.069Z,48.98
2023-01-11T09:45:34.200Z,49.49
2023-01-11T09:48:15.519Z,48.46
2023-01-11T09:50:47.890Z,48.64
2023-01-11T09:53:32.645Z,49.38
2023-01-11T09:56:05.322Z,49.15
2023-01-11T09:58:54.448Z,48.75
2023-01-11T10:01:47.097Z,49.07
2023-01-11T10:04:42.123Z,48.56
2023-01-11T10:07:12.566Z,48.46
2023-01-11T10:18:38.800Z,49.13
2023-01-11T10:19:33.426Z,49.21
2023-01-11T10:21:56.065Z,49.11
2023-01-11T10:24:27.338Z,49.95
2023-01-11T10:27:00.059Z,49.50
2023-01-11T10:30:04.118Z,49.47
2023-01-11T10:32:58.218Z,48.78
2023-01-11T10:35:42.160Z,48.33
2023-01-11T10:38:36.677Z,48.52
2023-01-11T10:41:19.871Z,48.05
2023-01-11T10:43:53.922Z,49.00
2023-01-11T10:46:26.941Z,50.39
2023-01-11T10:49:30.277Z,49.90
2023-01-11T10:52:12.524Z,49.29
2023-01-11T10:54:46.796Z,49.17
2023-01-11T10:57:24.259Z,48.81
2023-01-11T10:59:59.611Z,48.01
2023-01-11T11:02:58.382Z,47.78
2023-01-11T11:05:34.993Z,47.74
2023-01-11T11:08:26.673Z,47.64
2023-01-11T11:11:01.139Z,48.26
2023-01-11T11:13:53.394Z,48.57
2023-01-11T11:16:24.190Z,49.55
2023-01-11T11:18:55.922Z,50.13
2023-01-11T11:21:30.931Z,50.92
2023-01-11T11:24:21.071Z,50.20
2023-01-11T11:26:55.387Z,50.13
2023-01-11T11:29:29.378Z,48.99
2023-01-11T11:32:01.055Z,49.62
2023-01-11T11:34:31.238Z,50.54
2023-01-11T11:37:00.723Z,51.13
2023-01-11T11:39:29.587Z,49.88
2023-01-11T11:42:06.690Z,49.98
2023-01-11T11:44:35.409Z,50.03
2023-01-11T11:47:22.543Z,50.42
2023-01-11T11:49:50.194Z,51.20
2023-01-11T11:52:20.651Z,51.19
2023-01-11T11:54:57.130Z,50.23
2023-01-11T11:57:29.980Z,49.75
2023-01-11T12:00:06.137Z,50.35
2023-01-11T12:02:37.048Z,49.94
2023-01-11T12:05:10.538Z,50.23
2023-01-11T12:07:54.311Z,50.04
2023-01-11T12:10:25.641Z,49.80
2023-01-11T12:13:02.728Z,50.57
2023-01-11T12:15:32.701Z,49.84
2023-01-11T12:18:37.317Z,51.41
2023-01-11T12:21:21.577Z,51.10
2023-01-11T12:24:08.500Z,51.11
2023-01-11T12:26:46.131Z,50.40
2023-01-11T12:29:29.044Z,50.29
2023-01-11T12:32:13.883Z,49.85
2023-01-11T12:34:51.940Z,49.92
2023-01-11T12:37:28.494Z,50.40
2023-01-11T12:40:13.513Z,50.77
2023-01-11T12:43:05.924Z,51.00
2023-01-11T12:45:54.806Z,51.00
2023-01-11T12:48:32.357Z,51.08
2023-01-11T12:51:14.607Z,51.63
2023-01-11T12:54:14.272Z,51.81
2023-01-11T12:57:09.622Z,50.72
2023-01-11T13:00:13.508Z,50.37
2023-01-11T13:02:46.933Z,50.34
2023-01-11T13:05:26.230Z,50.71
2023-01-11T13:08:22.094Z,51.14
2023-01-11T13:11:05.056Z,51.09
2023-01-11T13:14:00.334Z,50.86
2023-01-11T13:16:38.728Z,51.87
2023-01-11T13:19:15.228Z,51.30
2023-01-11T13:21:53.100Z,51.51
2023-01-11T13:24:27.405Z,52.74
2023-01-11T13:27:02.760Z,52.86
2023-01-11T13:29:50.404Z,52.55
2023-01-11T13:32:28.349Z,52.34
2023-01-11T13:35:31.965Z,52.04
2023-01-11T13:38:17.439Z,52.91
2023-01-11T13:40:53.024Z,52.82
2023-01-11T13:43:55.477Z,51.95
2023-01-11T13:46:43.880Z,52.41
2023-01-11T13:49:12.347Z,52.25
2023-01-11T13:52:03.703Z,51.40
2023-01-11T13:55:09.015Z,51.14
2023-01-11T13:58:01.309Z,51.60
2023-01-11T14:00:39.227Z,50.01
2023-01-11T14:03:32.765Z,49.93
2023-01-11T14:06:42.322Z,50.40
2023-01-11T14:09:40.944Z,50.16
2023-01-11T14:12:51.056Z,48.58
2023-01-11T14:15:26.607Z,48.84
2023-01-11T14:18:37.011Z,48.84
2023-01-11T14:21:52.514Z,48.53
2023-01-11T14:24:22.751Z,47.33
2023-01-11T14:27:13.404Z,47.58
2023-01-11T14:30:04.634Z,47.96
2023-01-11T14:32:47.659Z,47.64
2023-01-11T14:35:27.140Z,48.61
2023-01-11T14:38:35.537Z,49.30
2023-01-11T14:41:15.061Z,49.43
2023-01-11T14:44:23.021Z,50.24
2023-01-11T14:47:12.905Z,52.65
2023-01-11T14:50:13.533Z,51.66
2023-01-11T14:52:44.054Z,51.32
2023-01-11T14:55:22.874Z,51.42
2023-01-11T14:57:56.329Z,52.28
2023-01-11T15:00:23.749Z,51.41
2023-01-11T15:03:18.499Z,52.27
2023-01-11T15:06:10.394Z,53.53
2023-01-11T15:08:46.016Z,52.81
2023-01-11T15:11:34.368Z,53.21
2023-01-11T15:14:22.075Z,53.48
2023-01-11T15:17:11.556Z,54.67
2023-01-11T15:19:42.324Z,53.64
2023-01-11T15:22:30.168Z,54.66
2023-01-11T15:25:19.342Z,54.73
2023-01-11T15:27:48.432Z,55.48
2023-01-11T15:30:31.353Z,56.76
2023-01-11T15:33:17.155Z,56.33
2023-01-11T15:35:56.646Z,55.81
2023-01-11T15:38:49.671Z,55.91
2023-01-11T15:41:38.529Z,55.62
2023-01-11T15:44:33.706Z,55.11
2023-01-11T15:47:38.674Z,56.00
2023-01-11T15:50:09.006Z,55.83
2023-01-11T15:53:04.214Z,56.66
2023-01-11T15:56:22.054Z,56.17
2023-01-11T15:59:04.652Z,55.93
2023-01-11T16:01:47.429Z,56.51
2023-01-11T16:04:29.082Z,56.54
2023-01-11T16:07:22.689Z,56.37
2023-01-11T16:10:22.510Z,55.77
2023-01-11T16:12:50.162Z,55.64
2023-01-11T16:15:36.113Z,55.82
2023-01-11T16:18:45.607Z,55.44
2023-01-11T16:21:21.952Z,55.27
2023-01-11T16:23:49.869Z,54.98
2023-01-11T16:26:19.800Z,55.18
2023-01-11T16:29:18.124Z,55.72
2023-01-11T16:31:59.382Z,54.74
2023-01-11T16:34:30.798Z,54.47
2023-01-11T16:36:58.467Z,54.46
2023-01-11T16:39:29.603Z,54.20
2023-01-11T16:42:06.003Z,54.08
2023-01-11T16:44:41.321Z,54.34
2023-01-11T16:47:12.166Z,53.26
2023-01-11T16:49:41.388Z,53.82
2023-01-11T16:52:27.046Z,52.50
2023-01-11T16:55:00.917Z,52.98
2023-01-11T16:57:37.720Z,51.68
2023-01-11T17:00:18.831Z,50.85
2023-01-11T17:02:49.044Z,51.59
2023-01-11T17:05:22.910Z,49.99
2023-01-11T17:07:53.941Z,50.38
2023-01-11T17:10:29.425Z,49.81
2023-01-11T17:13:35.721Z,50.14
2023-01-11T17:16:09.962Z,50.10
2023-01-11T17:18:42.677Z,49.43
2023-01-11T17:21:26.742Z,49.00
2023-01-11T17:24:00.513Z,49.32
2023-01-11T17:26:32.249Z,49.34
2023-01-11T17:29:00.684Z,49.68
2023-01-11T17:31:32.346Z,49.26
2023-01-11T17:34:05.673Z,49.31
2023-01-11T17:36:33.486Z,49.54
2023-01-11T17:39:03.913Z,49.11
2023-01-11T17:41:50.464Z,48.89
2023-01-11T17:44:39.608Z,48.73
2023-01-11T17:47:11.099Z,48.94
2023-01-11T17:49:39.282Z,49.14
2023-01-11T17:52:23.605Z,48.84
2023-01-11T17:55:02.301Z,49.47
2023-01-11T17:57:31.855Z,49.74
2023-01-11T18:00:23.864Z,49.30
2023-01-11T18:02:53.528Z,48.58
2023-01-11T18:05:29.600Z,49.89
2023-01-11T18:07:59.463Z,49.14
2023-01-11T18:10:37.328Z,48.88
2023-01-11T18:13:05.089Z,49.19
2023-01-11T18:15:37.120Z,48.96
2023-01-11T18:18:44.930Z,47.69
2023-01-11T18:21:40.408Z,49.28
2023-01-11T18:24:21.599Z,48.76
2023-01-11T18:26:50.275Z,49.34
2023-01-11T18:29:46.773Z,48.44
2023-01-11T18:32:15.472Z,48.69
2023-01-11T18:34:46.047Z,48.36
2023-01-11T18:37:13.845Z,48.89
2023-01-11T18:39:42.793Z,48.75
2023-01-11T18:42:16.503Z,49.28
2023-01-11T18:44:46.858Z,48.78
2023-01-11T18:47:14.315Z,47.51
2023-01-11T18:49:41.924Z,47.76
2023-01-11T18:52:10.460Z,47.00
2023-01-11T18:54:38.201Z,46.31
2023-01-11T18:57:05.762Z,47.17
2023-01-11T18:59:35.574Z,46.51
2023-01-11T19:02:28.207Z,47.52
2023-01-11T19:04:57.201Z,47.33
2023-01-11T19:07:26.569Z,47.12
2023-01-11T19:09:59.421Z,47.30
2023-01-11T19:12:27.623Z,47.53
2023-01-11T19:14:55.209Z,47.29
2023-01-11T19:17:23.869Z,47.93
2023-01-11T19:19:51.657Z,47.62
2023-01-11T19:22:23.273Z,47.34
2023-01-11T19:24:54.380Z,47.57
2023-01-11T19:27:23.042Z,47.63
2023-01-11T19:29:51.701Z,47.56
2023-01-11T19:32:23.744Z,47.82
2023-01-11T19:34:52.444Z,47.97
2023-01-11T19:37:20.826Z,48.59
2023-01-11T19:39:48.347Z,48.66
2023-01-11T19:42:15.956Z,49.33
2023-01-11T19:44:43.880Z,49.63
2023-01-11T19:47:15.828Z,50.14
2023-01-11T19:49:44.962Z,49.31
2023-01-11T19:52:19.057Z,49.72
2023-01-11T19:54:46.947Z,49.89
2023-01-11T19:57:20.802Z,50.12
2023-01-11T19:59:49.808Z,50.13
2023-01-11T20:02:20.577Z,49.94
2023-01-11T20:04:48.776Z,50.05
2023-01-11T20:07:16.388Z,49.41
2023-01-11T20:09:43.897Z,50.38
2023-01-11T20:12:15.894Z,49.41
2023-01-11T20:14:44.693Z,50.49
2023-01-11T20:17:13.333Z,50.22
2023-01-11T20:19:40.877Z,49.88
2023-01-11T20:22:08.396Z,50.38
2023-01-11T20:24:35.910Z,50.35
2023-01-11T20:27:03.763Z,49.70
2023-01-11T20:29:31.285Z,50.24
2023-01-11T20:32:18.670Z,49.63
2023-01-11T20:34:46.397Z,50.04
2023-01-11T20:37:15.147Z,49.95
2023-01-11T20:39:43.154Z,50.71
2023-01-11T20:42:12.678Z,50.33
2023-01-11T20:44:40.347Z,49.56
2023-01-11T20:47:08.090Z,50.82
2023-01-11T20:49:35.569Z,50.44
2023-01-11T20:52:03.317Z,50.85
2023-01-11T20:54:30.910Z,51.51
2023-01-11T20:57:05.618Z,51.92
2023-01-11T20:59:33.265Z,51.90
2023-01-11T21:02:00.838Z,51.84
2023-01-11T21:04:28.374Z,50.97
2023-01-11T21:06:55.852Z,51.74
2023-01-11T21:09:23.377Z,51.19
2023-01-11T21:11:54.250Z,51.28
2023-01-11T21:14:22.879Z,52.27
2023-01-11T21:16:50.643Z,52.22
2023-01-11T21:19:18.219Z,52.30
2023-01-11T21:21:45.700Z,52.25
2023-01-11T21:24:15.590Z,52.79
2023-01-11T21:26:45.320Z,52.36
2023-01-11T21:29:13.307Z,52.30
2023-01-11T21:31:42.101Z,51.80
2023-01-11T21:34:12.394Z,51.06
2023-01-11T21:36:40.522Z,51.82
2023-01-11T21:39:09.400Z,50.71
2023-01-11T21:41:55.227Z,51.23
2023-01-11T21:44:32.159Z,51.67
2023-01-11T21:47:05.626Z,51.23
2023-01-11T21:49:35.586Z,51.17
2023-01-11T21:52:03.303Z,50.67
2023-01-11T21:54:30.923Z,51.09
2023-01-11T21:56:58.608Z,50.42
2023-01-11T21:59:26.386Z,50.51
2023-01-11T22:01:54.074Z,50.31
2023-01-11T22:04:21.822Z,50.88
2023-01-11T22:06:55.267Z,49.93
2023-01-11T22:09:25.875Z,49.82
2023-01-11T22:11:53.725Z,49.75
2023-01-11T22:14:21.689Z,50.16
2023-01-11T22:16:49.935Z,50.71
2023-01-11T22:19:17.652Z,50.55
2023-01-11T22:21:45.715Z,50.13
2023-01-11T22:24:13.351Z,50.60
2023-01-11T22:26:41.315Z,49.67
2023-01-11T22:29:13.069Z,49.93
2023-01-11T22:32:04.480Z,50.13
2023-01-11T22:34:34.794Z,50.00
2023-01-11T22:37:02.580Z,50.47
2023-01-11T22:39:30.386Z,50.06
2023-01-11T22:41:58.188Z,49.83
2023-01-11T22:44:25.836Z,49.92
2023-01-11T22:46:53.470Z,50.45
2023-01-11T22:49:21.077Z,49.90
2023-01-11T22:51:51.245Z,50.73
2023-01-11T22:54:18.885Z,49.90
2023-01-11T22:56:47.803Z,49.98
2023-01-11T22:59:15.253Z,50.09
2023-01-11T23:01:43.266Z,50.15
2023-01-11T23:04:14.250Z,49.72
2023-01-11T23:06:43.100Z,49.48
2023-01-11T23:09:16.710Z,50.17
2023-01-11T23:12:03.576Z,49.17
2023-01-11T23:14:33.127Z,48.93
2023-01-11T23:17:09.069Z,49.77
2023-01-11T23:19:39.346Z,49.72
2023-01-11T23:22:08.373Z,49.47
2023-01-11T23:24:37.342Z,49.46
2023-01-11T23:27:05.656Z,49.58
2023-01-11T23:29:33.249Z,49.67
2023-01-11T23:32:00.797Z,49.75
2023-01-11T23:34:28.481Z,49.77
2023-01-11T23:36:55.924Z,50.11
2023-01-11T23:39:26.225Z,49.86
2023-01-11T23:42:12.145Z,49.50
2023-01-11T23:44:39.667Z,49.21
2023-01-11T23:47:22.116Z,49.71
2023-01-11T23:49:54.286Z,49.50
2023-01-11T23:52:27.857Z,49.34
2023-01-11T23:54:55.497Z,50.17
2023-01-11T23:57:24.893Z,50.07
2023-01-11T23:59:52.675Z,50.13
